Virginia Beach, VA (23465)

8:22 AM EDT on August 28, 2016 (GMT -0400)
Lake Christopher | | Change Station

Elev 45 ft 36.79 °N, 76.17 °W | Updated 18 seconds ago

Overcast
Overcast
79.3 °F
Feels Like 84 °F
N
2.0
Wind Variable Wind from NNE

Today
High -- | Low -- °F
--% Chance of Precip.
Yesterday
High -- | Low -- °F
Precip. -- in
Pressure 30.17 in
Visibility 10.0 miles
Clouds Overcast 2200 ft
Heat Index 84 °F
Dew Point 75 °F
Humidity 88%
Rainfall 0.00 in
Snow Depth Not available.
6:32 AM 7:38 PM
Waning Crescent, 16% visible
METAR KORF 281151Z 04007KT 10SM OVC022 26/23 A3017 RMK AO2 SLP216 T02610233 10261 20250 53011
Pressure 30.17 in
Visibility 10.0 miles
Clouds Overcast 2200 ft
Heat Index 84 °F
Dew Point 75 °F
Humidity 88%
Rainfall 0.00 in
Snow Depth Not available.
6:32 AM 7:38 PM
Waning Crescent, 16% visible
METAR KORF 281151Z 04007KT 10SM OVC022 26/23 A3017 RMK AO2 SLP216 T02610233 10261 20250 53011

10-Day Weather Forecast

Almanac

Astronomy

Aug. 28, 2016 Rise Set
Actual Time
Civil Twilight
Nautical Twilight
Astronomical Twilight
Moon
Length of Visible Light
Length of Day
Tomorrow will be .
, % of the Moon is Illuminated

Today's Extremes

State Highs State Lows

Community

WunderPhotos

Upload Photos

1,935,557 photos uploaded!

WunderBlog® & News

Nearby

Air Quality

  Air Quality AQ Index Pollutant
Not available.

Snow Depth

Station Depth Elevation

Earthquake Activity

City Distance Mag. Time & Date
Minimum magnitude displayed is 2.5.

Coastal Water Temperatures

Place Temperature

Stations

Nearby Weather Stations

Station Location Temp. Windchill Dew Point Humidity Wind Precip. Elev Updated Type
                   

Watches & Warnings

There are currently no watches in effect.